Search for airport 
image banner adimage banner adimage banner ad
image banner ad

CN33 - Airport Imperial Bldg Helistop

Located in El Segundo, United States

ICAO - CN33, IATA -

Data provided by Airmate  

General information

Coordinates: N33°55'49" W118°23'49"
Elevation is 238 feet MSL.
Magnetic variation is 14° East
View others Airports in California

Operational data

Special qualification required
Current time UTC:
Current local time:
Weather at : KLAX - Los Angeles Intl ( 2 km )
METAR: KLAX 210253Z 26006KT 10SM FEW010 20/17 A2993 RMK AO2 SLP134 T02000167 53015
TAF: KLAX 210251Z 2103/2206 25007KT P6SM FEW008 FM210500 VRB03KT P6SM FEW006 FM211000 09005KT 4SM HZ SCT004 FM211800 26010KT P6SM SKC FM220400 VRB03KT P6SM SKC
View NOTAMs / SUP AIP / TFR affecting this airport [VIEW]
Communications frequencies: [VIEW]

Runways:

Airport contact information

Address: El Segundo United States

Satellite view of CN33